Time,TemperatureF,DewpointF,PressureIn,WindDirection,WindDirectionDegrees,WindSpeedMPH,WindSpeedGustMPH,Humidity,HourlyPrecipIn,Conditions,Clouds,dailyrainin,SolarRadiationWatts/m^2,SoftwareType,DateUTC
2013-01-22 00:00:00,25.9,13.1,30.33,NNE,16,6.0,12.0,58,0.00,CLR,,0.00,0.0,WeatherDisplay:10.37,2013-01-22 06:00:00,
2013-01-22 00:10:00,25.8,13.0,30.33,NNE,20,6.0,12.0,58,0.00,CLR,,0.00,0.0,WeatherDisplay:10.37,2013-01-22 06:10:00,
2013-01-22 00:20:00,25.6,13.3,30.34,NNE,27,6.0,12.0,59,0.00,CLR,,0.00,0.0,WeatherDisplay:10.37,2013-01-22 06:20:00,
2013-01-22 00:30:00,25.5,13.1,30.34,NNE,20,7.0,13.0,59,0.00,CLR,,0.00,0.0,WeatherDisplay:10.37,2013-01-22 06:30:00,
2013-01-22 00:40:00,25.3,12.6,30.34,North,9,8.0,13.0,58,0.00,CLR,,0.00,0.0,WeatherDisplay:10.37,2013-01-22 06:40:00,
2013-01-22 00:50:00,25.1,12.8,30.34,North,8,6.0,12.0,59,0.00,CLR,,0.00,0.0,WeatherDisplay:10.37,2013-01-22 06:50:00,
2013-01-22 01:00:00,24.9,12.6,30.34,NNE,20,7.0,15.0,59,0.00,CLR,,0.00,0.0,WeatherDisplay:10.37,2013-01-22 07:00:00,
2013-01-22 01:10:00,24.8,12.5,30.35,NE,40,5.0,9.0,59,0.00,FEW,,0.00,0.0,WeatherDisplay:10.37,2013-01-22 07:10:00,
2013-01-22 01:20:00,24.7,12.7,30.35,NNE,29,3.0,10.0,60,0.00,FEW,,0.00,0.0,WeatherDisplay:10.37,2013-01-22 07:20:00,
2013-01-22 01:30:00,24.6,12.7,30.34,NNE,25,3.0,10.0,60,0.00,BKN,,0.00,0.0,WeatherDisplay:10.37,2013-01-22 07:30:00,
2013-01-22 01:40:00,24.4,12.1,30.34,NE,41,5.0,10.0,59,0.00,BKN,,0.00,0.0,WeatherDisplay:10.37,2013-01-22 07:40:00,
2013-01-22 01:50:00,24.3,11.3,30.35,NNE,21,3.0,9.0,57,0.00,BKN,,0.00,0.0,WeatherDisplay:10.37,2013-01-22 07:50:00,
2013-01-22 02:00:00,24.2,11.5,30.35,NNE,20,6.0,12.0,58,0.00,BKN,,0.00,0.0,WeatherDisplay:10.37,2013-01-22 08:00:00,
2013-01-22 02:10:00,24.0,10.6,30.35,NNE,29,8.0,15.0,56,0.00,OVC,,0.00,0.0,WeatherDisplay:10.37,2013-01-22 08:10:00,
2013-01-22 02:20:00,23.8,10.4,30.35,NE,38,7.0,12.0,56,0.00,OVC,,0.00,0.0,WeatherDisplay:10.37,2013-01-22 08:20:00,
2013-01-22 02:30:00,23.8,9.6,30.35,NE,39,10.0,14.0,54,0.00,OVC,,0.00,0.0,WeatherDisplay:10.37,2013-01-22 08:30:00,
2013-01-22 02:40:00,23.6,8.9,30.36,NE,34,6.0,12.0,53,0.00,BKN,,0.00,0.0,WeatherDisplay:10.37,2013-01-22 08:40:00,
2013-01-22 02:50:00,23.4,8.8,30.36,NNE,26,7.0,13.0,53,0.00,BKN,,0.00,0.0,WeatherDisplay:10.37,2013-01-22 08:50:00,
2013-01-22 03:00:00,23.3,8.3,30.36,NNE,23,5.0,12.0,52,0.00,FEW,,0.00,0.0,WeatherDisplay:10.37,2013-01-22 09:00:00,
2013-01-22 03:10:00,23.2,9.0,30.35,NE,37,6.0,12.0,54,0.00,FEW,,0.00,0.0,WeatherDisplay:10.37,2013-01-22 09:10:00,
2013-01-22 03:20:00,23.1,10.1,30.35,NE,43,3.0,10.0,57,0.00,BKN,,0.00,0.0,WeatherDisplay:10.37,2013-01-22 09:20:00,
2013-01-22 03:30:00,23.0,10.0,30.35,NE,37,5.0,9.0,57,0.00,BKN,,0.00,0.0,WeatherDisplay:10.37,2013-01-22 09:30:00,
2013-01-22 03:40:00,22.8,8.6,30.35,NE,43,5.0,10.0,54,0.00,BKN,,0.00,0.0,WeatherDisplay:10.37,2013-01-22 09:40:00,
2013-01-22 03:50:00,22.8,8.2,30.35,NNE,23,3.0,9.0,53,0.00,BKN,,0.00,0.0,WeatherDisplay:10.37,2013-01-22 09:50:00,
2013-01-22 04:00:00,22.7,8.1,30.36,NNE,19,3.0,10.0,53,0.00,SCT,,0.00,0.0,WeatherDisplay:10.37,2013-01-22 10:00:00,
2013-01-22 04:10:00,22.5,8.7,30.35,NE,47,6.0,12.0,55,0.00,SCT,,0.00,0.0,WeatherDisplay:10.37,2013-01-22 10:10:00,
2013-01-22 04:20:00,22.2,9.3,30.36,NE,39,3.0,9.0,57,0.00,SCT,,0.00,0.0,WeatherDisplay:10.37,2013-01-22 10:20:00,
2013-01-22 04:30:00,22.0,8.7,30.36,NNE,30,5.0,10.0,56,0.00,SCT,,0.00,0.0,WeatherDisplay:10.37,2013-01-22 10:30:00,
2013-01-22 04:40:00,21.7,8.4,30.36,NE,42,6.0,12.0,56,0.00,SCT,,0.00,0.0,WeatherDisplay:10.37,2013-01-22 10:40:00,
2013-01-22 04:50:00,21.4,8.1,30.37,NNE,30,3.0,7.0,56,0.00,SCT,,0.00,0.0,WeatherDisplay:10.37,2013-01-22 10:50:00,
2013-01-22 05:00:00,21.1,8.2,30.38,NE,35,2.0,5.0,57,0.00,SCT,,0.00,0.0,WeatherDisplay:10.37,2013-01-22 11:00:00,
2013-01-22 05:10:00,20.9,8.4,30.38,NNE,31,2.0,6.0,58,0.00,SCT,,0.00,0.0,WeatherDisplay:10.37,2013-01-22 11:10:00,
2013-01-22 05:20:00,20.6,8.1,30.38,NE,51,3.0,10.0,58,0.00,CLR,,0.00,0.0,WeatherDisplay:10.37,2013-01-22 11:20:00,
2013-01-22 05:30:00,20.4,7.2,30.38,NE,41,3.0,10.0,56,0.00,CLR,,0.00,0.0,WeatherDisplay:10.37,2013-01-22 11:30:00,
2013-01-22 05:40:00,20.3,6.7,30.38,NE,38,3.0,12.0,55,0.00,CLR,,0.00,0.0,WeatherDisplay:10.37,2013-01-22 11:40:00,
2013-01-22 05:50:00,20.3,6.7,30.40,NE,36,3.0,6.0,55,0.00,CLR,,0.00,0.0,WeatherDisplay:10.37,2013-01-22 11:50:00,
2013-01-22 06:00:00,20.2,6.6,30.40,NE,38,3.0,6.0,55,0.00,CLR,,0.00,0.0,WeatherDisplay:10.37,2013-01-22 12:00:00,
2013-01-22 06:10:00,20.2,6.2,30.40,NNE,31,3.0,7.0,54,0.00,CLR,,0.00,0.0,WeatherDisplay:10.37,2013-01-22 12:10:00,
2013-01-22 06:20:00,20.3,6.7,30.41,NNE,27,3.0,5.0,55,0.00,CLR,,0.00,0.0,WeatherDisplay:10.37,2013-01-22 12:20:00,
2013-01-22 06:30:00,20.3,7.1,30.41,NE,39,2.0,8.0,56,0.00,CLR,,0.00,0.0,WeatherDisplay:10.37,2013-01-22 12:30:00,
2013-01-22 06:40:00,20.3,7.5,30.42,NNE,25,2.0,7.0,57,0.00,CLR,,0.00,0.0,WeatherDisplay:10.37,2013-01-22 12:40:00,
2013-01-22 06:50:00,20.1,7.7,30.42,NE,38,3.0,7.0,58,0.00,CLR,,0.00,0.0,WeatherDisplay:10.37,2013-01-22 12:50:00,
2013-01-22 07:00:00,20.1,7.6,30.42,NE,43,2.0,6.0,58,0.00,CLR,,0.00,0.0,WeatherDisplay:10.37,2013-01-22 13:00:00,
2013-01-22 07:10:00,19.7,7.3,30.42,NE,46,6.0,9.0,58,0.00,CLR,,0.00,0.0,WeatherDisplay:10.37,2013-01-22 13:10:00,
2013-01-22 07:20:00,19.6,7.2,30.42,NE,47,2.0,8.0,58,0.00,CLR,,0.00,0.0,WeatherDisplay:10.37,2013-01-22 13:20:00,
2013-01-22 07:30:00,19.5,7.5,30.42,NE,44,3.0,8.0,59,0.00,CLR,,0.00,0.0,WeatherDisplay:10.37,2013-01-22 13:30:00,
2013-01-22 07:40:00,19.5,7.1,30.42,NE,40,2.0,7.0,58,0.00,CLR,,0.00,0.0,WeatherDisplay:10.37,2013-01-22 13:40:00,
2013-01-22 07:50:00,19.6,6.4,30.43,NE,49,3.0,7.0,56,0.00,CLR,,0.00,0.0,WeatherDisplay:10.37,2013-01-22 13:50:00,
2013-01-22 08:00:00,19.7,6.1,30.44,NE,45,3.0,7.0,55,0.00,CLR,,0.00,0.0,WeatherDisplay:10.37,2013-01-22 14:00:00,
2013-01-22 08:10:00,19.8,6.2,30.44,NE,39,5.0,8.0,55,0.00,CLR,,0.00,0.0,WeatherDisplay:10.37,2013-01-22 14:10:00,
2013-01-22 08:20:00,19.9,6.3,30.44,NNE,29,1.0,7.0,55,0.00,CLR,,0.00,0.0,WeatherDisplay:10.37,2013-01-22 14:20:00,
2013-01-22 08:30:00,20.3,5.9,30.44,NE,51,2.0,6.0,53,0.00,CLR,,0.00,0.0,WeatherDisplay:10.37,2013-01-22 14:30:00,
2013-01-22 08:40:00,20.5,4.8,30.44,NNE,31,2.0,6.0,50,0.00,CLR,,0.00,0.0,WeatherDisplay:10.37,2013-01-22 14:40:00,
2013-01-22 08:50:00,20.7,3.6,30.44,NE,52,2.0,7.0,47,0.00,CLR,,0.00,0.0,WeatherDisplay:10.37,2013-01-22 14:50:00,
2013-01-22 09:00:00,21.0,3.9,30.44,NE,52,5.0,7.0,47,0.00,CLR,,0.00,0.0,WeatherDisplay:10.37,2013-01-22 15:00:00,
2013-01-22 09:10:00,21.1,4.0,30.45,NE,48,5.0,8.0,47,0.00,CLR,,0.00,0.0,WeatherDisplay:10.37,2013-01-22 15:10:00,
2013-01-22 09:20:00,21.7,5.0,30.45,NE,50,6.0,9.0,48,0.00,CLR,,0.00,0.0,WeatherDisplay:10.37,2013-01-22 15:20:00,
2013-01-22 09:30:00,21.5,4.8,30.45,NE,42,5.0,9.0,48,0.00,CLR,,0.00,0.0,WeatherDisplay:10.37,2013-01-22 15:30:00,
2013-01-22 09:40:00,22.3,6.0,30.46,NE,53,2.0,8.0,49,0.00,CLR,,0.00,0.0,WeatherDisplay:10.37,2013-01-22 15:40:00,
2013-01-22 09:50:00,22.8,6.0,30.46,ENE,65,3.0,8.0,48,0.00,CLR,,0.00,0.0,WeatherDisplay:10.37,2013-01-22 15:50:00,
2013-01-22 10:00:00,22.5,5.7,30.46,NE,53,6.0,12.0,48,0.00,CLR,,0.00,0.0,WeatherDisplay:10.37,2013-01-22 16:00:00,
2013-01-22 10:10:00,22.9,6.1,30.46,NE,48,3.0,9.0,48,0.00,CLR,,0.00,0.0,WeatherDisplay:10.37,2013-01-22 16:10:00,
2013-01-22 10:20:00,23.0,5.7,30.46,NE,42,6.0,12.0,47,0.00,CLR,,0.00,0.0,WeatherDisplay:10.37,2013-01-22 16:20:00,
2013-01-22 10:30:00,23.4,5.6,30.46,NE,52,2.0,9.0,46,0.00,CLR,,0.00,0.0,WeatherDisplay:10.37,2013-01-22 16:30:00,
2013-01-22 10:40:00,23.8,6.0,30.45,NE,48,5.0,7.0,46,0.00,CLR,,0.00,0.0,WeatherDisplay:10.37,2013-01-22 16:40:00,
2013-01-22 10:50:00,24.6,6.7,30.45,ENE,59,3.0,8.0,46,0.00,CLR,,0.00,0.0,WeatherDisplay:10.37,2013-01-22 16:50:00,
2013-01-22 11:00:00,25.2,7.3,30.45,ENE,69,1.0,9.0,46,0.00,CLR,,0.00,0.0,WeatherDisplay:10.37,2013-01-22 17:00:00,
2013-01-22 11:10:00,25.0,6.6,30.45,ENE,63,2.0,6.0,45,0.00,CLR,,0.00,0.0,WeatherDisplay:10.37,2013-01-22 17:10:00,
2013-01-22 11:20:00,25.7,6.7,30.44,East,94,1.0,7.0,44,0.00,CLR,,0.00,0.0,WeatherDisplay:10.37,2013-01-22 17:20:00,
2013-01-22 11:30:00,25.2,5.8,30.44,NE,47,2.0,7.0,43,0.00,CLR,,0.00,0.0,WeatherDisplay:10.37,2013-01-22 17:30:00,
2013-01-22 11:40:00,25.6,6.2,30.44,NNE,25,0.0,4.0,43,0.00,CLR,,0.00,0.0,WeatherDisplay:10.37,2013-01-22 17:40:00,
2013-01-22 11:50:00,26.6,6.0,30.44,NNE,13,5.0,9.0,41,0.00,CLR,,0.00,0.0,WeatherDisplay:10.37,2013-01-22 17:50:00,
2013-01-22 12:00:00,26.7,5.6,30.43,NE,37,3.0,7.0,40,0.00,CLR,,0.00,0.0,WeatherDisplay:10.37,2013-01-22 18:00:00,
2013-01-22 12:10:00,26.0,5.5,30.44,NNE,29,3.0,6.0,41,0.00,CLR,,0.00,0.0,WeatherDisplay:10.37,2013-01-22 18:10:00,
2013-01-22 12:20:00,26.6,6.6,30.43,ESE,107,2.0,5.0,42,0.00,CLR,,0.00,0.0,WeatherDisplay:10.37,2013-01-22 18:20:00,
2013-01-22 12:30:00,26.6,6.5,30.43,ESE,111,1.0,6.0,42,0.00,CLR,,0.00,0.0,WeatherDisplay:10.37,2013-01-22 18:30:00,
2013-01-22 12:40:00,26.7,6.2,30.42,NNE,19,3.0,8.0,41,0.00,CLR,,0.00,0.0,WeatherDisplay:10.37,2013-01-22 18:40:00,
2013-01-22 12:50:00,27.1,6.5,30.42,WNW,294,0.0,4.0,41,0.00,CLR,,0.00,0.0,WeatherDisplay:10.37,2013-01-22 18:50:00,
2013-01-22 13:00:00,27.8,6.6,30.41,SSW,199,2.0,5.0,40,0.00,CLR,,0.00,0.0,WeatherDisplay:10.37,2013-01-22 19:00:00,
2013-01-22 13:10:00,28.9,7.6,30.40,South,169,1.0,3.0,40,0.00,CLR,,0.00,0.0,WeatherDisplay:10.37,2013-01-22 19:10:00,
2013-01-22 13:20:00,30.6,7.9,30.40,SE,139,1.0,4.0,38,0.00,CLR,,0.00,0.0,WeatherDisplay:10.37,2013-01-22 19:20:00,
2013-01-22 13:30:00,29.5,6.4,30.40,East,93,0.0,4.0,37,0.00,CLR,,0.00,0.0,WeatherDisplay:10.37,2013-01-22 19:30:00,
2013-01-22 13:40:00,29.7,8.3,30.40,NW,314,0.0,4.0,40,0.00,CLR,,0.00,0.0,WeatherDisplay:10.37,2013-01-22 19:40:00,
2013-01-22 13:50:00,31.0,8.3,30.40,West,272,1.0,4.0,38,0.00,CLR,,0.00,0.0,WeatherDisplay:10.37,2013-01-22 19:50:00,
2013-01-22 14:00:00,29.8,8.4,30.40,WNW,303,2.0,9.0,40,0.00,CLR,,0.00,0.0,WeatherDisplay:10.37,2013-01-22 20:00:00,
2013-01-22 14:10:00,29.2,7.2,30.40,WNW,299,2.0,6.0,39,0.00,BKN,,0.00,0.0,WeatherDisplay:10.37,2013-01-22 20:10:00,
2013-01-22 14:20:00,29.5,7.6,30.39,South,176,1.0,2.0,39,0.00,BKN,,0.00,0.0,WeatherDisplay:10.37,2013-01-22 20:20:00,
2013-01-22 14:30:00,29.2,8.3,30.40,South,186,0.0,2.0,41,0.00,BKN,,0.00,0.0,WeatherDisplay:10.37,2013-01-22 20:30:00,
2013-01-22 14:40:00,28.9,7.6,30.40,ESE,118,1.0,4.0,40,0.00,BKN,,0.00,0.0,WeatherDisplay:10.37,2013-01-22 20:40:00,
2013-01-22 14:50:00,29.0,8.7,30.40,SSE,157,0.0,3.0,42,0.00,OVC,,0.00,0.0,WeatherDisplay:10.37,2013-01-22 20:50:00,
2013-01-22 15:00:00,29.0,7.7,30.40,NNW,338,1.0,4.0,40,0.00,OVC,,0.00,0.0,WeatherDisplay:10.37,2013-01-22 21:00:00,
2013-01-22 15:10:00,28.8,7.5,30.40,NNW,341,2.0,5.0,40,0.00,OVC,,0.00,0.0,WeatherDisplay:10.37,2013-01-22 21:10:00,
2013-01-22 15:20:00,29.1,7.2,30.40,NE,43,2.0,5.0,39,0.00,OVC,,0.00,0.0,WeatherDisplay:10.37,2013-01-22 21:20:00,
2013-01-22 15:30:00,28.4,6.6,30.39,NNE,23,3.0,7.0,39,0.00,OVC,,0.00,0.0,WeatherDisplay:10.37,2013-01-22 21:30:00,
2013-01-22 15:40:00,28.2,6.9,30.39,NNE,27,3.0,6.0,40,0.00,OVC,,0.00,0.0,WeatherDisplay:10.37,2013-01-22 21:40:00,
2013-01-22 15:50:00,28.4,7.1,30.39,NE,46,1.0,4.0,40,0.00,OVC,,0.00,0.0,WeatherDisplay:10.37,2013-01-22 21:50:00,
2013-01-22 16:00:00,28.1,6.9,30.39,NNE,23,1.0,6.0,40,0.00,OVC,,0.00,0.0,WeatherDisplay:10.37,2013-01-22 22:00:00,
2013-01-22 16:10:00,27.8,7.1,30.39,NNE,12,3.0,6.0,41,0.00,OVC,,0.00,0.0,WeatherDisplay:10.37,2013-01-22 22:10:00,
2013-01-22 16:20:00,27.9,7.2,30.39,NNE,12,1.0,5.0,41,0.00,OVC,,0.00,0.0,WeatherDisplay:10.37,2013-01-22 22:20:00,
2013-01-22 16:30:00,27.7,7.0,30.39,North,5,3.0,5.0,41,0.00,OVC,,0.00,0.0,WeatherDisplay:10.37,2013-01-22 22:30:00,
2013-01-22 16:40:00,27.8,7.1,30.39,NNE,31,2.0,6.0,41,0.00,OVC,,0.00,0.0,WeatherDisplay:10.37,2013-01-22 22:40:00,
2013-01-22 16:50:00,27.9,7.2,30.39,NE,35,2.0,4.0,41,0.00,OVC,,0.00,0.0,WeatherDisplay:10.37,2013-01-22 22:50:00,
2013-01-22 17:00:00,27.7,7.0,30.39,NE,45,1.0,5.0,41,0.00,OVC,,0.00,0.0,WeatherDisplay:10.37,2013-01-22 23:00:00,
2013-01-22 17:10:00,27.6,7.5,30.39,NE,44,2.0,5.0,42,0.00,OVC,,0.00,0.0,WeatherDisplay:10.37,2013-01-22 23:10:00,
2013-01-22 17:20:00,27.6,7.5,30.38,NNE,17,2.0,4.0,42,0.00,OVC,,0.00,0.0,WeatherDisplay:10.37,2013-01-22 23:20:00,
2013-01-22 17:30:00,27.5,7.4,30.39,NNE,22,2.0,4.0,42,0.00,OVC,,0.00,0.0,WeatherDisplay:10.37,2013-01-22 23:30:00,
2013-01-22 17:40:00,27.5,7.4,30.39,NNE,19,2.0,3.0,42,0.00,OVC,,0.00,0.0,WeatherDisplay:10.37,2013-01-22 23:40:00,
2013-01-22 17:50:00,27.5,7.4,30.39,NE,47,1.0,4.0,42,0.00,OVC,,0.00,0.0,WeatherDisplay:10.37,2013-01-22 23:50:00,
2013-01-22 18:00:00,27.8,8.2,30.39,ENE,72,0.0,3.0,43,0.00,OVC,,0.00,0.0,WeatherDisplay:10.37,2013-01-23 00:00:00,
2013-01-22 18:10:00,27.7,7.6,30.38,NE,50,1.0,2.0,42,0.00,OVC,,0.00,0.0,WeatherDisplay:10.37,2013-01-23 00:10:00,
2013-01-22 18:20:00,27.8,7.6,30.38,NE,49,1.0,1.0,42,0.00,OVC,,0.00,0.0,WeatherDisplay:10.37,2013-01-23 00:20:00,
2013-01-22 18:30:00,27.8,8.2,30.37,ESE,103,0.0,2.0,43,0.00,OVC,,0.00,0.0,WeatherDisplay:10.37,2013-01-23 00:30:00,
2013-01-22 18:40:00,28.1,9.0,30.38,East,83,0.0,1.0,44,0.00,OVC,,0.00,0.0,WeatherDisplay:10.37,2013-01-23 00:40:00,
2013-01-22 18:50:00,27.9,7.8,30.38,East,88,0.0,1.0,42,0.00,OVC,,0.00,0.0,WeatherDisplay:10.37,2013-01-23 00:50:00,
2013-01-22 19:00:00,27.9,8.8,30.37,East,91,0.0,1.0,44,0.00,OVC,,0.00,0.0,WeatherDisplay:10.37,2013-01-23 01:00:00,
2013-01-22 19:10:00,27.9,8.3,30.37,ENE,64,1.0,2.0,43,0.00,OVC,,0.00,0.0,WeatherDisplay:10.37,2013-01-23 01:10:00,
2013-01-22 19:20:00,27.8,8.7,30.36,NE,53,0.0,1.0,44,0.00,OVC,,0.00,0.0,WeatherDisplay:10.37,2013-01-23 01:20:00,
2013-01-22 19:30:00,28.1,9.0,30.36,NE,53,1.0,1.0,44,0.00,OVC,,0.00,0.0,WeatherDisplay:10.37,2013-01-23 01:30:00,
2013-01-22 19:40:00,27.7,8.6,30.36,NE,53,1.0,3.0,44,0.00,OVC,,0.00,0.0,WeatherDisplay:10.37,2013-01-23 01:40:00,
2013-01-22 19:50:00,27.7,9.1,30.36,NE,50,2.0,4.0,45,0.00,OVC,,0.00,0.0,WeatherDisplay:10.37,2013-01-23 01:50:00,
2013-01-22 20:00:00,27.5,8.9,30.37,NE,49,1.0,5.0,45,0.00,OVC,,0.00,0.0,WeatherDisplay:10.37,2013-01-23 02:00:00,
2013-01-22 20:10:00,27.5,8.9,30.37,NNE,27,5.0,5.0,45,0.00,OVC,,0.00,0.0,WeatherDisplay:10.37,2013-01-23 02:10:00,
2013-01-22 20:20:00,27.6,9.0,30.37,NE,42,3.0,6.0,45,0.00,OVC,,0.00,0.0,WeatherDisplay:10.37,2013-01-23 02:20:00,
2013-01-22 20:30:00,27.6,10.0,30.36,NE,42,3.0,5.0,47,0.00,OVC,,0.00,0.0,WeatherDisplay:10.37,2013-01-23 02:30:00,
2013-01-22 20:40:00,27.4,9.8,30.36,NE,41,3.0,7.0,47,0.00,OVC,,0.00,0.0,WeatherDisplay:10.37,2013-01-23 02:40:00,
2013-01-22 20:50:00,27.3,10.2,30.36,NE,49,2.0,6.0,48,0.00,OVC,,0.00,0.0,WeatherDisplay:10.37,2013-01-23 02:50:00,
2013-01-22 21:00:00,27.3,10.2,30.36,NE,39,2.0,6.0,48,0.00,OVC,,0.00,0.0,WeatherDisplay:10.37,2013-01-23 03:00:00,
2013-01-22 21:10:00,27.3,10.2,30.37,NE,48,1.0,6.0,48,0.00,OVC,,0.00,0.0,WeatherDisplay:10.37,2013-01-23 03:10:00,
2013-01-22 21:20:00,27.0,9.9,30.37,NE,36,5.0,9.0,48,0.00,OVC,,0.00,0.0,WeatherDisplay:10.37,2013-01-23 03:20:00,
2013-01-22 21:30:00,26.9,9.3,30.37,NE,44,3.0,7.0,47,0.00,OVC,,0.00,0.0,WeatherDisplay:10.37,2013-01-23 03:30:00,
2013-01-22 21:40:00,26.8,9.2,30.37,NE,50,2.0,7.0,47,0.00,OVC,,0.00,0.0,WeatherDisplay:10.37,2013-01-23 03:40:00,
2013-01-22 21:50:00,26.7,9.1,30.37,NE,50,5.0,7.0,47,0.00,OVC,,0.00,0.0,WeatherDisplay:10.37,2013-01-23 03:50:00,
2013-01-22 22:00:00,26.7,9.1,30.37,NE,52,2.0,5.0,47,0.00,OVC,,0.00,0.0,WeatherDisplay:10.37,2013-01-23 04:00:00,
2013-01-22 22:10:00,26.8,10.2,30.37,ENE,59,1.0,6.0,49,0.00,OVC,,0.00,0.0,WeatherDisplay:10.37,2013-01-23 04:10:00,
2013-01-22 22:20:00,26.7,9.6,30.37,NE,48,5.0,6.0,48,0.00,OVC,,0.00,0.0,WeatherDisplay:10.37,2013-01-23 04:20:00,
2013-01-22 22:30:00,26.6,9.5,30.37,NE,48,5.0,7.0,48,0.00,OVC,,0.00,0.0,WeatherDisplay:10.37,2013-01-23 04:30:00,
2013-01-22 22:40:00,26.7,10.1,30.37,NE,52,2.0,6.0,49,0.00,OVC,,0.00,0.0,WeatherDisplay:10.37,2013-01-23 04:40:00,
2013-01-22 22:50:00,26.7,9.6,30.37,NE,54,2.0,6.0,48,0.00,OVC,,0.00,0.0,WeatherDisplay:10.37,2013-01-23 04:50:00,
2013-01-22 23:00:00,26.7,10.1,30.37,NE,45,3.0,7.0,49,0.00,OVC,,0.00,0.0,WeatherDisplay:10.37,2013-01-23 05:00:00,
2013-01-22 23:10:00,26.7,10.1,30.37,NE,51,2.0,6.0,49,0.00,OVC,,0.00,0.0,WeatherDisplay:10.37,2013-01-23 05:10:00,
2013-01-22 23:20:00,26.6,10.0,30.38,ENE,57,2.0,6.0,49,0.00,OVC,,0.00,0.0,WeatherDisplay:10.37,2013-01-23 05:20:00,
2013-01-22 23:30:00,26.6,10.5,30.38,ENE,73,2.0,4.0,50,0.00,OVC,,0.00,0.0,WeatherDisplay:10.37,2013-01-23 05:30:00,
2013-01-22 23:40:00,26.5,9.9,30.38,ENE,57,3.0,6.0,49,0.00,OVC,,0.00,0.0,WeatherDisplay:10.37,2013-01-23 05:40:00,
2013-01-22 23:50:00,26.0,10.3,30.37,NE,54,2.0,5.0,51,0.00,OVC,,0.00,0.0,WeatherDisplay:10.37,2013-01-23 05:50:00,